Time,TemperatureF,DewpointF,PressureIn,WindDirection,WindDirectionDegrees,WindSpeedMPH,WindSpeedGustMPH,Humidity,HourlyPrecipIn,Conditions,Clouds,dailyrainin,SoftwareType,DateUTC
2013-08-10 00:00:00,83.9,69.5,29.92,NNE,13,0.0,0.0,62,0.00,,,0.00,Wunderground v.1.15,2013-08-10 05:00:00,
2013-08-10 00:10:00,83.5,69.6,29.92,NNE,13,0.0,0.0,63,0.00,,,0.00,Wunderground v.1.15,2013-08-10 05:10:00,
2013-08-10 00:20:00,83.0,69.6,29.92,NNE,13,0.0,0.0,64,0.00,,,0.00,Wunderground v.1.15,2013-08-10 05:20:00,
2013-08-10 00:30:00,82.7,69.7,29.92,NNE,13,0.0,0.0,65,0.00,,,0.00,Wunderground v.1.15,2013-08-10 05:30:00,
2013-08-10 00:40:00,82.5,70.4,29.93,NNE,13,0.0,0.0,67,0.00,,,0.00,Wunderground v.1.15,2013-08-10 05:40:00,
2013-08-10 00:50:00,82.3,70.2,29.93,NNE,12,0.0,0.0,67,0.00,,,0.00,Wunderground v.1.15,2013-08-10 05:50:00,
2013-08-10 01:00:00,82.2,71.0,29.93,NNW,346,0.0,0.0,69,0.00,,,0.00,Wunderground v.1.15,2013-08-10 06:00:00,
2013-08-10 01:10:00,82.2,71.0,29.93,NNW,346,0.0,0.0,69,0.00,,,0.00,Wunderground v.1.15,2013-08-10 06:10:00,
2013-08-10 01:20:00,82.0,71.2,29.93,NW,322,0.0,0.0,70,0.00,,,0.00,Wunderground v.1.15,2013-08-10 06:20:00,
2013-08-10 01:30:00,81.8,71.1,29.94,NW,317,0.0,0.0,70,0.00,,,0.00,Wunderground v.1.15,2013-08-10 06:30:00,
2013-08-10 01:40:00,81.6,70.9,29.94,WNW,288,0.0,0.0,70,0.00,,,0.00,Wunderground v.1.15,2013-08-10 06:40:00,
2013-08-10 01:50:00,81.2,70.1,29.93,WNW,288,0.0,0.0,69,0.00,,,0.00,Wunderground v.1.15,2013-08-10 06:50:00,
2013-08-10 02:00:00,81.0,69.4,29.93,WNW,296,0.0,0.0,68,0.00,,,0.00,Wunderground v.1.15,2013-08-10 07:00:00,
2013-08-10 02:10:00,80.8,68.8,29.93,WNW,296,0.0,0.0,67,0.00,,,0.00,Wunderground v.1.15,2013-08-10 07:10:00,
2013-08-10 02:20:00,80.5,69.0,29.93,WNW,296,0.0,0.0,68,0.00,,,0.00,Wunderground v.1.15,2013-08-10 07:20:00,
2013-08-10 02:30:00,80.4,68.9,29.93,WNW,296,0.0,0.0,68,0.00,,,0.00,Wunderground v.1.15,2013-08-10 07:30:00,
2013-08-10 02:40:00,80.2,69.1,29.93,WNW,296,0.0,0.0,69,0.00,,,0.00,Wunderground v.1.15,2013-08-10 07:40:00,
2013-08-10 02:50:00,79.8,69.1,29.93,WNW,296,0.0,0.0,70,0.00,,,0.00,Wunderground v.1.15,2013-08-10 07:50:00,
2013-08-10 03:00:00,79.7,69.0,29.93,WNW,296,0.0,0.0,70,0.00,,,0.00,Wunderground v.1.15,2013-08-10 08:00:00,
2013-08-10 03:10:00,79.6,69.8,29.93,WNW,296,0.0,0.0,72,0.00,,,0.00,Wunderground v.1.15,2013-08-10 08:10:00,
2013-08-10 03:20:00,79.5,70.1,29.93,WNW,296,0.0,0.0,73,0.00,,,0.00,Wunderground v.1.15,2013-08-10 08:20:00,
2013-08-10 03:30:00,79.4,70.8,29.94,WNW,296,0.0,0.0,75,0.00,,,0.00,Wunderground v.1.15,2013-08-10 08:30:00,
2013-08-10 03:40:00,79.3,70.7,29.94,WNW,296,0.0,0.0,75,0.00,,,0.00,Wunderground v.1.15,2013-08-10 08:40:00,
2013-08-10 03:50:00,79.0,70.8,29.94,WNW,296,0.0,0.0,76,0.00,,,0.00,Wunderground v.1.15,2013-08-10 08:50:00,
2013-08-10 04:00:00,78.8,71.0,29.94,WNW,296,0.0,0.0,77,0.00,,,0.00,Wunderground v.1.15,2013-08-10 09:00:00,
2013-08-10 04:10:00,78.7,71.3,29.94,WNW,296,0.0,0.0,78,0.00,,,0.00,Wunderground v.1.15,2013-08-10 09:10:00,
2013-08-10 04:20:00,78.6,71.5,29.94,WNW,296,0.0,0.0,79,0.00,,,0.00,Wunderground v.1.15,2013-08-10 09:20:00,
2013-08-10 04:30:00,78.5,71.4,29.94,WNW,296,0.0,0.0,79,0.00,,,0.00,Wunderground v.1.15,2013-08-10 09:30:00,
2013-08-10 04:40:00,78.5,71.8,29.94,NNW,338,0.0,0.0,80,0.00,,,0.00,Wunderground v.1.15,2013-08-10 09:40:00,
2013-08-10 04:50:00,78.4,72.1,29.94,NNW,336,0.0,0.0,81,0.00,,,0.00,Wunderground v.1.15,2013-08-10 09:50:00,
2013-08-10 05:00:00,78.4,72.1,29.95,NNW,336,0.0,0.0,81,0.00,,,0.00,Wunderground v.1.15,2013-08-10 10:00:00,
2013-08-10 05:10:00,78.3,72.0,29.95,NNW,336,0.0,0.0,81,0.00,,,0.00,Wunderground v.1.15,2013-08-10 10:10:00,
2013-08-10 05:20:00,78.2,71.9,29.94,NNW,336,0.0,0.0,81,0.00,,,0.00,Wunderground v.1.15,2013-08-10 10:20:00,
2013-08-10 05:30:00,77.9,71.6,29.95,NNW,336,0.0,0.0,81,0.00,,,0.00,Wunderground v.1.15,2013-08-10 10:30:00,
2013-08-10 05:40:00,77.8,71.9,29.95,NNW,336,0.0,0.0,82,0.00,,,0.00,Wunderground v.1.15,2013-08-10 10:40:00,
2013-08-10 05:50:00,77.7,71.8,29.95,NNW,336,0.0,0.0,82,0.00,,,0.00,Wunderground v.1.15,2013-08-10 10:50:00,
2013-08-10 06:00:00,77.7,72.1,29.95,NNW,338,0.0,0.0,83,0.00,,,0.00,Wunderground v.1.15,2013-08-10 11:00:00,
2013-08-10 06:10:00,77.7,72.1,29.96,NNW,336,0.0,0.0,83,0.00,,,0.00,Wunderground v.1.15,2013-08-10 11:10:00,
2013-08-10 06:20:00,77.8,72.2,29.96,NNW,336,0.0,0.0,83,0.00,,,0.00,Wunderground v.1.15,2013-08-10 11:20:00,
2013-08-10 06:30:00,77.9,72.3,29.96,NNW,348,0.0,0.0,83,0.00,,,0.00,Wunderground v.1.15,2013-08-10 11:30:00,
2013-08-10 06:40:00,77.9,72.7,29.96,NNW,348,0.0,0.0,84,0.00,,,0.00,Wunderground v.1.15,2013-08-10 11:40:00,
2013-08-10 06:50:00,77.8,72.6,29.96,NNW,347,0.0,0.0,84,0.00,,,0.00,Wunderground v.1.15,2013-08-10 11:50:00,
2013-08-10 07:00:00,77.7,72.5,29.97,NNW,348,0.0,0.0,84,0.00,,,0.00,Wunderground v.1.15,2013-08-10 12:00:00,
2013-08-10 07:10:00,77.7,72.5,29.97,North,350,0.0,0.0,84,0.00,,,0.00,Wunderground v.1.15,2013-08-10 12:10:00,
2013-08-10 07:20:00,77.9,72.7,29.97,North,351,1.0,1.0,84,0.00,,,0.00,Wunderground v.1.15,2013-08-10 12:20:00,
2013-08-10 07:30:00,78.1,72.9,29.98,North,11,1.0,1.0,84,0.00,,,0.00,Wunderground v.1.15,2013-08-10 12:30:00,
2013-08-10 07:40:00,78.4,73.2,29.98,NNE,32,1.0,1.0,84,0.00,,,0.00,Wunderground v.1.15,2013-08-10 12:40:00,
2013-08-10 07:50:00,78.7,73.5,29.98,NE,40,1.0,4.0,84,0.00,,,0.00,Wunderground v.1.15,2013-08-10 12:50:00,
2013-08-10 08:00:00,79.1,73.8,29.98,North,360,2.0,2.0,84,0.00,,,0.00,Wunderground v.1.15,2013-08-10 13:00:00,
2013-08-10 08:10:00,79.4,74.1,29.99,NNW,340,1.0,2.0,84,0.00,,,0.00,Wunderground v.1.15,2013-08-10 13:10:00,
2013-08-10 08:20:00,79.8,74.2,29.99,NNE,21,2.0,2.0,83,0.00,,,0.00,Wunderground v.1.15,2013-08-10 13:20:00,
2013-08-10 08:30:00,80.0,74.0,29.99,NNW,331,2.0,3.0,82,0.00,,,0.00,Wunderground v.1.15,2013-08-10 13:30:00,
2013-08-10 08:40:00,80.5,74.1,29.99,NNE,15,2.0,3.0,81,0.00,,,0.00,Wunderground v.1.15,2013-08-10 13:40:00,
2013-08-10 08:50:00,80.9,74.1,30.00,NNW,344,2.0,6.0,80,0.00,,,0.00,Wunderground v.1.15,2013-08-10 13:50:00,
2013-08-10 09:00:00,81.3,74.2,30.00,NNE,13,2.0,4.0,79,0.00,,,0.00,Wunderground v.1.15,2013-08-10 14:00:00,
2013-08-10 09:10:00,81.9,74.4,30.01,ENE,58,3.0,3.0,78,0.00,,,0.00,Wunderground v.1.15,2013-08-10 14:10:00,
2013-08-10 09:20:00,82.2,74.3,30.01,ESE,111,2.0,3.0,77,0.00,,,0.00,Wunderground v.1.15,2013-08-10 14:20:00,
2013-08-10 09:30:00,82.1,74.2,30.01,WNW,285,4.0,4.0,77,0.00,,,0.00,Wunderground v.1.15,2013-08-10 14:30:00,
2013-08-10 09:40:00,82.4,74.5,30.01,North,11,3.0,3.0,77,0.00,,,0.00,Wunderground v.1.15,2013-08-10 14:40:00,
2013-08-10 09:50:00,83.0,74.3,30.01,North,9,4.0,4.0,75,0.00,,,0.00,Wunderground v.1.15,2013-08-10 14:50:00,
2013-08-10 10:00:00,83.9,74.7,30.00,North,351,2.0,5.0,74,0.00,,,0.00,Wunderground v.1.15,2013-08-10 15:00:00,
2013-08-10 10:10:00,84.4,74.8,30.01,East,82,3.0,3.0,73,0.00,,,0.00,Wunderground v.1.15,2013-08-10 15:10:00,
2013-08-10 10:20:00,85.6,75.1,30.01,NNE,15,1.0,1.0,71,0.00,,,0.00,Wunderground v.1.15,2013-08-10 15:20:00,
2013-08-10 10:30:00,85.7,74.4,30.01,NNE,28,4.0,6.0,69,0.00,,,0.00,Wunderground v.1.15,2013-08-10 15:30:00,
2013-08-10 10:40:00,86.4,74.6,30.01,ENE,74,3.0,3.0,68,0.00,,,0.00,Wunderground v.1.15,2013-08-10 15:40:00,
2013-08-10 10:50:00,87.2,74.5,30.01,NNW,343,2.0,8.0,66,0.00,,,0.00,Wunderground v.1.15,2013-08-10 15:50:00,
2013-08-10 11:00:00,87.3,74.1,30.02,ENE,57,3.0,3.0,65,0.00,,,0.00,Wunderground v.1.15,2013-08-10 16:00:00,
2013-08-10 11:10:00,87.9,73.7,30.02,North,11,3.0,3.0,63,0.00,,,0.00,Wunderground v.1.15,2013-08-10 16:10:00,
2013-08-10 11:20:00,88.7,74.5,30.02,ENE,77,3.0,3.0,63,0.00,,,0.00,Wunderground v.1.15,2013-08-10 16:20:00,
2013-08-10 11:30:00,89.7,73.5,30.02,North,5,2.0,6.0,59,0.00,,,0.00,Wunderground v.1.15,2013-08-10 16:30:00,
2013-08-10 11:40:00,90.1,73.3,30.02,North,9,3.0,7.0,58,0.00,,,0.00,Wunderground v.1.15,2013-08-10 16:40:00,
2013-08-10 11:50:00,91.2,74.4,30.02,North,355,1.0,4.0,58,0.00,,,0.00,Wunderground v.1.15,2013-08-10 16:50:00,
2013-08-10 12:00:00,91.7,74.3,30.01,West,279,2.0,2.0,57,0.00,,,0.00,Wunderground v.1.15,2013-08-10 17:00:00,
2013-08-10 12:10:00,92.6,74.6,30.02,North,360,1.0,3.0,56,0.00,,,0.00,Wunderground v.1.15,2013-08-10 17:10:00,
2013-08-10 12:20:00,92.6,73.5,30.02,NNW,336,2.0,8.0,54,0.00,,,0.00,Wunderground v.1.15,2013-08-10 17:20:00,
2013-08-10 12:30:00,92.7,73.6,30.02,NNW,340,2.0,4.0,54,0.00,,,0.00,Wunderground v.1.15,2013-08-10 17:30:00,
2013-08-10 12:40:00,92.8,73.7,30.01,North,360,3.0,6.0,54,0.00,,,0.00,Wunderground v.1.15,2013-08-10 17:40:00,
2013-08-10 12:50:00,92.5,73.4,30.01,West,279,5.0,5.0,54,0.00,,,0.00,Wunderground v.1.15,2013-08-10 17:50:00,
2013-08-10 13:00:00,93.0,73.3,30.01,NNW,342,3.0,3.0,53,0.00,,,0.00,Wunderground v.1.15,2013-08-10 18:00:00,
2013-08-10 13:10:00,93.2,73.5,30.01,West,270,4.0,4.0,53,0.00,,,0.00,Wunderground v.1.15,2013-08-10 18:10:00,
2013-08-10 13:20:00,93.2,73.5,30.01,ENE,75,2.0,2.0,53,0.00,,,0.00,Wunderground v.1.15,2013-08-10 18:20:00,
2013-08-10 13:30:00,94.3,72.8,30.00,NNE,27,1.0,1.0,50,0.00,,,0.00,Wunderground v.1.15,2013-08-10 18:30:00,
2013-08-10 13:40:00,94.7,73.2,30.00,North,351,2.0,2.0,50,0.00,,,0.00,Wunderground v.1.15,2013-08-10 18:40:00,
2013-08-10 13:50:00,95.4,72.6,30.00,ENE,76,3.0,3.0,48,0.00,,,0.00,Wunderground v.1.15,2013-08-10 18:50:00,
2013-08-10 14:00:00,96.1,72.0,29.99,NNE,26,2.0,4.0,46,0.00,,,0.00,Wunderground v.1.15,2013-08-10 19:00:00,
2013-08-10 14:10:00,95.9,71.1,29.99,North,9,3.0,3.0,45,0.00,,,0.00,Wunderground v.1.15,2013-08-10 19:10:00,
2013-08-10 14:20:00,95.3,71.2,29.98,NNW,348,1.0,1.0,46,0.00,,,0.00,Wunderground v.1.15,2013-08-10 19:20:00,
2013-08-10 14:30:00,95.5,71.4,29.98,NNE,17,1.0,1.0,46,0.00,,,0.00,Wunderground v.1.15,2013-08-10 19:30:00,
2013-08-10 14:40:00,96.8,71.3,29.98,NE,56,1.0,2.0,44,0.00,,,0.00,Wunderground v.1.15,2013-08-10 19:40:00,
2013-08-10 14:50:00,96.6,70.4,29.97,NNW,342,3.0,3.0,43,0.00,,,0.00,Wunderground v.1.15,2013-08-10 19:50:00,
2013-08-10 15:00:00,96.9,70.7,29.97,NNW,342,2.0,2.0,43,0.00,,,0.00,Wunderground v.1.15,2013-08-10 20:00:00,
2013-08-10 15:10:00,97.1,70.2,29.96,NNW,333,1.0,2.0,42,0.00,,,0.00,Wunderground v.1.15,2013-08-10 20:10:00,
2013-08-10 15:20:00,97.6,69.9,29.96,NNW,344,2.0,4.0,41,0.00,,,0.00,Wunderground v.1.15,2013-08-10 20:20:00,
2013-08-10 15:30:00,97.9,70.9,29.95,South,182,1.0,1.0,42,0.00,,,0.00,Wunderground v.1.15,2013-08-10 20:30:00,
2013-08-10 15:40:00,98.6,70.8,29.95,North,355,0.0,0.0,41,0.00,,,0.00,Wunderground v.1.15,2013-08-10 20:40:00,
2013-08-10 15:50:00,99.1,69.8,29.94,NNE,13,1.0,1.0,39,0.00,,,0.00,Wunderground v.1.15,2013-08-10 20:50:00,
2013-08-10 16:00:00,98.6,69.4,29.94,NNE,26,2.0,6.0,39,0.00,,,0.00,Wunderground v.1.15,2013-08-10 21:00:00,
2013-08-10 16:10:00,98.3,70.6,29.94,East,95,2.0,2.0,41,0.00,,,0.00,Wunderground v.1.15,2013-08-10 21:10:00,
2013-08-10 16:20:00,97.8,69.4,29.93,WNW,303,2.0,2.0,40,0.00,,,0.00,Wunderground v.1.15,2013-08-10 21:20:00,
2013-08-10 16:30:00,97.7,70.0,29.93,North,5,3.0,4.0,41,0.00,,,0.00,Wunderground v.1.15,2013-08-10 21:30:00,
2013-08-10 16:40:00,98.2,69.7,29.93,NNW,341,1.0,2.0,40,0.00,,,0.00,Wunderground v.1.15,2013-08-10 21:40:00,
2013-08-10 16:50:00,98.7,69.4,29.93,NE,39,1.0,1.0,39,0.00,,,0.00,Wunderground v.1.15,2013-08-10 21:50:00,
2013-08-10 17:00:00,98.5,69.3,29.93,North,355,1.0,1.0,39,0.00,,,0.00,Wunderground v.1.15,2013-08-10 22:00:00,
2013-08-10 17:10:00,98.1,69.7,29.93,ENE,70,2.0,2.0,40,0.00,,,0.00,Wunderground v.1.15,2013-08-10 22:10:00,
2013-08-10 17:20:00,98.5,69.3,29.93,NNE,30,2.0,2.0,39,0.00,,,0.00,Wunderground v.1.15,2013-08-10 22:20:00,
2013-08-10 17:30:00,98.5,69.3,29.93,North,9,1.0,1.0,39,0.00,,,0.00,Wunderground v.1.15,2013-08-10 22:30:00,
2013-08-10 17:40:00,97.9,68.0,29.92,North,5,1.0,1.0,38,0.00,,,0.00,Wunderground v.1.15,2013-08-10 22:40:00,
2013-08-10 17:50:00,98.3,69.1,29.92,North,10,1.0,1.0,39,0.00,,,0.00,Wunderground v.1.15,2013-08-10 22:50:00,
2013-08-10 18:00:00,98.7,67.9,29.92,ENE,65,1.0,1.0,37,0.00,,,0.00,Wunderground v.1.15,2013-08-10 23:00:00,
2013-08-10 18:10:00,98.7,68.7,29.91,North,10,0.0,1.0,38,0.00,,,0.00,Wunderground v.1.15,2013-08-10 23:10:00,
2013-08-10 18:20:00,98.8,68.0,29.92,NNE,15,0.0,0.0,37,0.00,,,0.00,Wunderground v.1.15,2013-08-10 23:20:00,
2013-08-10 18:30:00,98.6,67.0,29.91,WNW,300,0.0,0.0,36,0.00,,,0.00,Wunderground v.1.15,2013-08-10 23:30:00,
2013-08-10 18:40:00,98.4,66.9,29.91,North,5,1.0,1.0,36,0.00,,,0.00,Wunderground v.1.15,2013-08-10 23:40:00,
2013-08-10 18:50:00,97.8,67.1,29.91,North,360,1.0,1.0,37,0.00,,,0.00,Wunderground v.1.15,2013-08-10 23:50:00,
2013-08-10 19:00:00,96.8,66.2,29.91,North,360,1.0,1.0,37,0.00,,,0.00,Wunderground v.1.15,2013-08-11 00:00:00,
2013-08-10 19:10:00,96.2,66.5,29.91,ENE,64,0.0,2.0,38,0.00,,,0.00,Wunderground v.1.15,2013-08-11 00:10:00,
2013-08-10 19:20:00,95.7,66.0,29.91,North,355,1.0,1.0,38,0.00,,,0.00,Wunderground v.1.15,2013-08-11 00:20:00,
2013-08-10 19:30:00,95.3,65.7,29.92,North,5,0.0,2.0,38,0.00,,,0.00,Wunderground v.1.15,2013-08-11 00:30:00,
2013-08-10 19:40:00,94.9,66.1,29.92,North,5,1.0,3.0,39,0.00,,,0.00,Wunderground v.1.15,2013-08-11 00:40:00,
2013-08-10 19:50:00,94.5,65.7,29.92,North,5,0.0,0.0,39,0.00,,,0.00,Wunderground v.1.15,2013-08-11 00:50:00,
2013-08-10 20:00:00,94.0,66.0,29.92,North,5,0.0,0.0,40,0.00,,,0.00,Wunderground v.1.15,2013-08-11 01:00:00,
2013-08-10 20:10:00,93.6,65.6,29.92,North,360,0.0,0.0,40,0.00,,,0.00,Wunderground v.1.15,2013-08-11 01:10:00,
2013-08-10 20:20:00,93.2,66.0,29.93,North,360,0.0,0.0,41,0.00,,,0.00,Wunderground v.1.15,2013-08-11 01:20:00,
2013-08-10 20:30:00,92.6,66.2,29.94,North,5,0.0,0.0,42,0.00,,,0.00,Wunderground v.1.15,2013-08-11 01:30:00,
2013-08-10 20:40:00,92.1,65.7,29.94,North,5,0.0,0.0,42,0.00,,,0.00,Wunderground v.1.15,2013-08-11 01:40:00,
2013-08-10 20:50:00,91.5,65.8,29.94,North,5,0.0,0.0,43,0.00,,,0.00,Wunderground v.1.15,2013-08-11 01:50:00,
2013-08-10 21:00:00,91.0,66.1,29.95,North,5,0.0,0.0,44,0.00,,,0.00,Wunderground v.1.15,2013-08-11 02:00:00,
2013-08-10 21:10:00,90.5,66.3,29.95,North,5,0.0,0.0,45,0.00,,,0.00,Wunderground v.1.15,2013-08-11 02:10:00,
2013-08-10 21:20:00,90.0,66.4,29.95,North,5,0.0,0.0,46,0.00,,,0.00,Wunderground v.1.15,2013-08-11 02:20:00,
2013-08-10 21:30:00,89.6,66.7,29.95,North,5,0.0,0.0,47,0.00,,,0.00,Wunderground v.1.15,2013-08-11 02:30:00,
2013-08-10 21:40:00,89.3,67.0,29.95,North,5,0.0,0.0,48,0.00,,,0.00,Wunderground v.1.15,2013-08-11 02:40:00,
2013-08-10 21:50:00,89.0,66.8,29.96,North,5,0.0,0.0,48,0.00,,,0.00,Wunderground v.1.15,2013-08-11 02:50:00,
2013-08-10 22:00:00,88.6,67.0,29.96,North,5,0.0,0.0,49,0.00,,,0.00,Wunderground v.1.15,2013-08-11 03:00:00,
2013-08-10 22:30:00,87.3,67.0,29.97,North,5,0.0,0.0,51,0.00,,,0.00,Wunderground v.1.15,2013-08-11 03:30:00,
2013-08-10 22:40:00,86.9,67.7,29.97,North,5,0.0,0.0,53,0.00,,,0.00,Wunderground v.1.15,2013-08-11 03:40:00,
2013-08-10 22:50:00,86.6,67.4,29.97,North,5,0.0,0.0,53,0.00,,,0.00,Wunderground v.1.15,2013-08-11 03:50:00,
2013-08-10 23:00:00,86.2,67.6,29.97,North,5,0.0,0.0,54,0.00,,,0.00,Wunderground v.1.15,2013-08-11 04:00:00,
2013-08-10 23:10:00,85.8,67.8,29.98,North,5,0.0,0.0,55,0.00,,,0.00,Wunderground v.1.15,2013-08-11 04:10:00,
2013-08-10 23:20:00,85.5,67.5,29.98,North,9,0.0,0.0,55,0.00,,,0.00,Wunderground v.1.15,2013-08-11 04:20:00,
2013-08-10 23:30:00,85.2,67.7,29.99,North,5,0.0,0.0,56,0.00,,,0.00,Wunderground v.1.15,2013-08-11 04:30:00,
2013-08-10 23:40:00,85.2,68.2,29.99,SE,138,0.0,0.0,57,0.00,,,0.00,Wunderground v.1.15,2013-08-11 04:40:00,
2013-08-10 23:50:00,85.3,67.8,29.99,NE,46,0.0,0.0,56,0.00,,,0.00,Wunderground v.1.15,2013-08-11 04:50:00,